createdAt,value
2018-03-15T00:00:54.178Z,93.00
2018-03-15T00:03:28.336Z,93.30
2018-03-15T00:05:56.996Z,93.20
2018-03-15T00:08:25.686Z,93.10
2018-03-15T00:10:54.399Z,93.10
2018-03-15T00:13:23.082Z,93.00
2018-03-15T00:15:51.815Z,93.20
2018-03-15T00:18:20.629Z,93.00
2018-03-15T00:20:49.320Z,93.10
2018-03-15T00:23:18.004Z,93.50
2018-03-15T00:25:46.716Z,93.70
2018-03-15T00:28:15.394Z,93.30
2018-03-15T00:30:44.072Z,93.60
2018-03-15T00:33:12.753Z,93.30
2018-03-15T00:35:41.436Z,93.40
2018-03-15T00:38:10.117Z,93.40
2018-03-15T00:40:38.820Z,93.60
2018-03-15T00:43:07.502Z,93.60
2018-03-15T00:45:36.188Z,93.50
2018-03-15T00:48:04.221Z,94.00
2018-03-15T00:50:33.901Z,94.40
2018-03-15T00:53:02.562Z,94.40
2018-03-15T00:55:31.217Z,94.50
2018-03-15T00:57:59.897Z,95.00
2018-03-15T01:00:29.342Z,94.80
2018-03-15T01:02:58.060Z,94.70
2018-03-15T01:05:26.728Z,94.90
2018-03-15T01:07:55.405Z,94.70
2018-03-15T01:10:24.041Z,94.70
2018-03-15T01:12:53.637Z,94.60
2018-03-15T01:15:22.313Z,94.60
2018-03-15T01:17:51.012Z,94.40
2018-03-15T01:20:19.697Z,94.40
2018-03-15T01:22:48.365Z,94.20
2018-03-15T01:25:17.054Z,94.10
2018-03-15T01:27:45.745Z,94.30
2018-03-15T01:30:14.395Z,94.20
2018-03-15T01:32:43.048Z,94.20
2018-03-15T01:35:12.529Z,94.40
2018-03-15T01:37:41.176Z,94.30
2018-03-15T01:40:10.001Z,94.70
2018-03-15T01:42:38.674Z,94.50
2018-03-15T01:45:07.321Z,94.50
2018-03-15T01:47:35.969Z,94.60
2018-03-15T01:50:04.637Z,94.50
2018-03-15T01:52:32.616Z,94.80
2018-03-15T01:55:01.273Z,94.90
2018-03-15T01:57:29.960Z,95.10
2018-03-15T01:59:58.603Z,95.10
2018-03-15T02:02:28.020Z,95.40
2018-03-15T02:04:57.440Z,95.60
2018-03-15T02:07:26.104Z,95.60
2018-03-15T02:09:55.532Z,95.90
2018-03-15T02:12:24.204Z,95.90
2018-03-15T02:14:53.637Z,95.90
2018-03-15T02:17:22.285Z,95.80
2018-03-15T02:19:51.389Z,96.00
2018-03-15T02:22:21.047Z,96.20
2018-03-15T02:24:49.772Z,96.20
2018-03-15T02:27:18.428Z,96.00
2018-03-15T02:29:47.077Z,96.10
2018-03-15T02:32:16.517Z,96.40
2018-03-15T02:34:45.180Z,96.40
2018-03-15T02:37:13.843Z,96.50
2018-03-15T02:39:42.498Z,96.60
2018-03-15T02:42:11.213Z,96.40
2018-03-15T02:44:39.892Z,96.30
2018-03-15T02:47:09.553Z,96.60
2018-03-15T02:49:38.243Z,96.60
2018-03-15T02:52:06.909Z,96.40
2018-03-15T02:54:35.597Z,96.20
2018-03-15T02:57:04.257Z,95.90
2018-03-15T02:59:32.920Z,96.20
2018-03-15T03:02:02.337Z,96.70
2018-03-15T03:04:31.023Z,96.30
2018-03-15T03:06:59.775Z,96.30
2018-03-15T03:09:28.465Z,96.20
2018-03-15T03:11:57.251Z,96.20
2018-03-15T03:14:26.178Z,96.00
2018-03-15T03:16:55.640Z,96.20
2018-03-15T03:19:24.301Z,96.20
2018-03-15T03:21:53.216Z,96.20
2018-03-15T03:24:21.906Z,96.30
2018-03-15T03:26:50.585Z,96.30
2018-03-15T03:29:19.289Z,96.40
2018-03-15T03:31:47.950Z,96.30
2018-03-15T03:34:16.618Z,96.70
2018-03-15T03:36:45.284Z,96.60
2018-03-15T03:39:14.712Z,96.70
2018-03-15T03:41:43.413Z,96.60
2018-03-15T03:44:12.070Z,96.60
2018-03-15T03:46:40.749Z,96.70
2018-03-15T03:49:09.406Z,96.70
2018-03-15T03:51:38.064Z,97.00
2018-03-15T03:54:06.752Z,96.80
2018-03-15T03:56:35.406Z,96.90
2018-03-15T03:59:04.096Z,96.70
2018-03-15T04:01:32.795Z,96.70
2018-03-15T04:04:01.485Z,96.70
2018-03-15T04:06:31.037Z,96.80
2018-03-15T04:08:59.728Z,97.10
2018-03-15T04:11:28.398Z,97.10
2018-03-15T04:13:57.119Z,97.10
2018-03-15T04:16:26.589Z,97.40
2018-03-15T04:18:55.260Z,97.40
2018-03-15T04:21:23.925Z,97.60
2018-03-15T04:23:52.584Z,97.80
2018-03-15T04:26:22.012Z,97.90
2018-03-15T04:28:50.702Z,97.90
2018-03-15T04:31:19.385Z,98.10
2018-03-15T04:33:48.055Z,98.10
2018-03-15T04:36:17.507Z,98.30
2018-03-15T04:38:46.160Z,98.30
2018-03-15T04:41:14.845Z,98.60
2018-03-15T04:43:43.553Z,98.60
2018-03-15T04:46:12.233Z,99.00
2018-03-15T04:48:40.925Z,98.80
2018-03-15T04:51:09.600Z,98.80
2018-03-15T04:53:38.268Z,99.00
2018-03-15T04:56:07.712Z,99.20
2018-03-15T04:58:36.381Z,99.20
2018-03-15T05:01:05.058Z,99.20
2018-03-15T05:03:33.809Z,99.20
2018-03-15T05:06:03.281Z,99.30
2018-03-15T05:08:31.948Z,99.20
2018-03-15T05:11:00.657Z,99.30
2018-03-15T05:13:29.508Z,99.30
2018-03-15T05:15:58.379Z,99.30
2018-03-15T05:18:27.049Z,99.40
2018-03-15T05:20:55.721Z,99.40
2018-03-15T05:23:24.401Z,99.20
2018-03-15T05:25:53.060Z,99.30
2018-03-15T05:28:21.724Z,99.40
2018-03-15T05:30:50.989Z,99.90
2018-03-15T05:33:19.664Z,99.90
2018-03-15T05:35:48.437Z,99.70
2018-03-15T05:38:17.190Z,99.80
2018-03-15T05:40:46.660Z,99.80
2018-03-15T05:43:15.352Z,99.70
2018-03-15T05:45:44.033Z,99.60
2018-03-15T05:48:12.720Z,99.70
2018-03-15T05:50:41.390Z,99.60
2018-03-15T05:53:10.054Z,99.50
2018-03-15T05:55:38.724Z,99.40
2018-03-15T05:58:08.192Z,99.60
2018-03-15T06:00:36.887Z,99.60
2018-03-15T06:03:05.647Z,99.60
2018-03-15T06:05:34.294Z,99.60
2018-03-15T06:08:03.728Z,98.70
2018-03-15T06:10:32.381Z,98.70
2018-03-15T06:13:01.025Z,99.00
2018-03-15T06:15:29.694Z,98.80
2018-03-15T06:17:58.538Z,98.60
2018-03-15T06:20:27.192Z,98.50
2018-03-15T06:22:55.832Z,98.10
2018-03-15T06:25:25.249Z,97.50
2018-03-15T06:27:53.890Z,97.50
2018-03-15T06:30:22.520Z,97.30
2018-03-15T06:32:51.156Z,97.20
2018-03-15T06:35:19.782Z,97.50
2018-03-15T06:37:48.428Z,97.00
2018-03-15T06:40:16.741Z,97.00
2018-03-15T06:42:47.405Z,97.00
2018-03-15T06:45:16.056Z,97.00
2018-03-15T06:47:45.543Z,96.90
2018-03-15T06:50:15.314Z,96.80
2018-03-15T06:52:43.961Z,96.80
2018-03-15T06:55:12.751Z,96.90
2018-03-15T06:57:41.414Z,96.90
2018-03-15T07:00:10.053Z,97.10
2018-03-15T07:02:38.713Z,97.20
2018-03-15T07:05:07.360Z,97.80
2018-03-15T07:07:36.018Z,97.40
2018-03-15T07:10:04.674Z,97.20
2018-03-15T07:12:34.084Z,97.40
2018-03-15T07:15:02.759Z,97.40
2018-03-15T07:17:31.416Z,97.40
2018-03-15T07:20:00.197Z,97.20
2018-03-15T07:22:28.865Z,97.10
2018-03-15T07:24:57.512Z,96.90
2018-03-15T07:27:26.169Z,97.00
2018-03-15T07:29:54.846Z,97.20
2018-03-15T07:32:23.497Z,97.10
2018-03-15T07:34:52.136Z,97.00
2018-03-15T07:37:20.814Z,97.10
2018-03-15T07:39:49.464Z,96.80
2018-03-15T07:42:18.121Z,97.00
2018-03-15T07:44:46.796Z,97.00
2018-03-15T07:47:16.209Z,96.60
2018-03-15T07:49:45.662Z,96.80
2018-03-15T07:52:14.369Z,96.80
2018-03-15T07:54:43.041Z,96.60
2018-03-15T07:57:11.372Z,96.50
2018-03-15T07:59:40.024Z,96.50
2018-03-15T08:02:08.718Z,96.50
2018-03-15T08:04:37.376Z,96.10
2018-03-15T08:07:06.050Z,95.70
2018-03-15T08:09:34.737Z,96.10
2018-03-15T08:12:03.379Z,95.50
2018-03-15T08:14:32.794Z,95.70
2018-03-15T08:17:01.502Z,95.70
2018-03-15T08:19:30.799Z,94.90
2018-03-15T08:21:59.474Z,94.90
2018-03-15T08:24:28.203Z,95.00
2018-03-15T08:26:56.920Z,94.40
2018-03-15T08:29:26.356Z,94.30
2018-03-15T08:31:54.997Z,94.30
2018-03-15T08:34:23.656Z,93.80
2018-03-15T08:36:52.300Z,94.10
2018-03-15T08:39:21.732Z,93.30
2018-03-15T08:41:50.402Z,93.30
2018-03-15T08:44:19.040Z,93.50
2018-03-15T08:46:47.701Z,93.60
2018-03-15T08:49:17.141Z,93.00
2018-03-15T08:51:45.785Z,93.00
2018-03-15T08:54:14.429Z,92.10
2018-03-15T08:56:43.860Z,91.80
2018-03-15T08:59:12.536Z,91.70
2018-03-15T09:01:42.009Z,91.80
2018-03-15T09:04:10.723Z,91.80
2018-03-15T09:06:40.169Z,90.90
2018-03-15T09:09:08.816Z,90.90
2018-03-15T09:11:38.237Z,90.50
2018-03-15T09:14:06.881Z,90.50
2018-03-15T09:16:35.558Z,91.00
2018-03-15T09:19:04.209Z,90.60
2018-03-15T09:21:32.877Z,91.30
2018-03-15T09:24:01.781Z,90.70
2018-03-15T09:26:30.440Z,90.60
2018-03-15T09:28:59.882Z,91.00
2018-03-15T09:31:28.520Z,91.00
2018-03-15T09:33:57.369Z,91.40
2018-03-15T09:36:26.250Z,91.30
2018-03-15T09:38:54.918Z,90.50
2018-03-15T09:41:24.533Z,90.90
2018-03-15T09:43:53.413Z,90.90
2018-03-15T09:46:23.036Z,90.10
2018-03-15T09:48:51.877Z,89.70
2018-03-15T09:51:20.757Z,89.30
2018-03-15T09:53:49.415Z,88.60
2018-03-15T09:56:18.269Z,87.20
2018-03-15T09:58:47.130Z,86.60
2018-03-15T10:01:15.980Z,85.50
2018-03-15T10:03:44.850Z,85.90
2018-03-15T10:06:13.740Z,84.80
2018-03-15T10:08:42.577Z,83.90
2018-03-15T10:11:11.438Z,83.50
2018-03-15T10:13:41.342Z,82.60
2018-03-15T10:16:11.138Z,82.00
2018-03-15T10:18:39.981Z,82.00
2018-03-15T10:21:08.859Z,80.70
2018-03-15T10:23:37.710Z,80.10
2018-03-15T10:26:06.562Z,79.80
2018-03-15T10:28:35.436Z,80.20
2018-03-15T10:31:04.293Z,80.00
2018-03-15T10:33:37.757Z,79.50
2018-03-15T10:36:06.005Z,81.90
2018-03-15T10:38:34.596Z,84.10
2018-03-15T10:41:02.883Z,78.70
2018-03-15T10:43:31.452Z,79.80
2018-03-15T10:46:00.297Z,81.00
2018-03-15T10:48:28.880Z,79.70
2018-03-15T10:50:57.449Z,77.90
2018-03-15T10:53:25.856Z,81.60
2018-03-15T10:55:54.753Z,79.10
2018-03-15T10:58:24.069Z,81.20
2018-03-15T11:00:58.153Z,81.10
2018-03-15T11:03:31.977Z,81.30
2018-03-15T11:06:05.938Z,80.60
2018-03-15T11:08:35.460Z,77.90
2018-03-15T11:11:04.483Z,78.20
2018-03-15T11:13:33.088Z,78.20
2018-03-15T11:16:01.627Z,77.20
2018-03-15T11:18:31.016Z,74.10
2018-03-15T11:20:59.588Z,73.90
2018-03-15T11:23:28.179Z,75.80
2018-03-15T11:25:56.756Z,76.60
2018-03-15T11:28:25.147Z,75.60
2018-03-15T11:30:53.717Z,75.10
2018-03-15T11:33:22.306Z,75.20
2018-03-15T11:35:50.897Z,79.80
2018-03-15T11:38:19.473Z,78.20
2018-03-15T11:40:48.083Z,77.90
2018-03-15T11:43:16.671Z,77.60
2018-03-15T11:45:45.261Z,76.50
2018-03-15T11:48:14.634Z,76.00
2018-03-15T11:50:43.225Z,76.00
2018-03-15T11:53:11.837Z,75.30
2018-03-15T11:55:41.173Z,72.20
2018-03-15T11:58:09.590Z,72.20
2018-03-15T12:00:38.176Z,75.10
2018-03-15T12:03:06.573Z,72.10
2018-03-15T12:05:35.761Z,73.90
2018-03-15T12:08:04.333Z,73.90
2018-03-15T12:10:32.913Z,72.70
2018-03-15T12:13:01.512Z,68.10
2018-03-15T12:15:30.085Z,71.60
2018-03-15T12:17:58.675Z,68.40
2018-03-15T12:20:27.056Z,70.20
2018-03-15T12:22:55.453Z,70.40
2018-03-15T12:25:24.609Z,72.60
2018-03-15T12:27:53.004Z,72.80
2018-03-15T12:30:21.380Z,72.70
2018-03-15T12:32:49.770Z,70.10
2018-03-15T12:35:18.177Z,69.30
2018-03-15T12:37:47.318Z,72.90
2018-03-15T12:40:15.795Z,72.80
2018-03-15T12:42:44.260Z,71.90
2018-03-15T12:45:12.685Z,71.50
2018-03-15T12:47:41.129Z,68.70
2018-03-15T12:50:09.557Z,65.60
2018-03-15T12:52:37.982Z,68.00
2018-03-15T12:55:06.397Z,65.40
2018-03-15T12:57:34.817Z,65.90
2018-03-15T13:00:03.706Z,68.40
2018-03-15T13:02:32.918Z,67.60
2018-03-15T13:05:01.407Z,67.60
2018-03-15T13:07:30.104Z,68.00
2018-03-15T13:09:58.620Z,68.00
2018-03-15T13:12:27.096Z,68.70
2018-03-15T13:14:55.574Z,66.60
2018-03-15T13:17:24.059Z,66.10
2018-03-15T13:19:52.776Z,65.90
2018-03-15T13:22:21.408Z,66.10
2018-03-15T13:24:50.014Z,63.40
2018-03-15T13:27:18.521Z,62.70
2018-03-15T13:29:47.005Z,64.10
2018-03-15T13:32:16.004Z,66.90
2018-03-15T13:34:44.529Z,70.60
2018-03-15T13:37:12.838Z,68.90
2018-03-15T13:39:41.284Z,65.60
2018-03-15T13:42:10.622Z,64.30
2018-03-15T13:44:39.197Z,60.70
2018-03-15T13:47:08.256Z,61.00
2018-03-15T13:49:36.786Z,62.90
2018-03-15T13:52:05.272Z,61.40
2018-03-15T13:54:33.713Z,60.10
2018-03-15T13:57:02.165Z,61.50
2018-03-15T13:59:30.664Z,61.30
2018-03-15T14:01:59.869Z,58.60
2018-03-15T14:04:28.505Z,58.60
2018-03-15T14:06:56.951Z,59.70
2018-03-15T14:09:25.406Z,61.50
2018-03-15T14:11:54.656Z,62.80
2018-03-15T14:14:24.142Z,64.20
2018-03-15T14:19:49.076Z,61.20
2018-03-15T14:22:17.803Z,62.60
2018-03-15T14:24:46.542Z,63.10
2018-03-15T14:27:15.866Z,63.30
2018-03-15T14:29:46.111Z,63.80
2018-03-15T14:32:15.169Z,64.70
2018-03-15T14:34:43.640Z,64.90
2018-03-15T14:37:12.308Z,65.60
2018-03-15T14:39:41.017Z,64.10
2018-03-15T14:42:09.760Z,65.50
2018-03-15T14:44:38.461Z,64.90
2018-03-15T14:47:07.222Z,64.30
2018-03-15T14:49:36.693Z,68.10
2018-03-15T14:52:05.410Z,68.10
2018-03-15T14:54:34.184Z,68.70
2018-03-15T14:57:03.042Z,69.90
2018-03-15T14:59:31.743Z,70.30
2018-03-15T15:02:00.455Z,71.60
2018-03-15T15:04:29.021Z,73.40
2018-03-15T15:06:57.907Z,74.00
2018-03-15T15:09:26.347Z,73.30
2018-03-15T15:11:54.798Z,72.50
2018-03-15T15:14:23.475Z,72.60
2018-03-15T15:16:51.907Z,73.20
2018-03-15T15:19:21.094Z,75.50
2018-03-15T15:21:49.518Z,75.40
2018-03-15T15:24:19.187Z,77.20
2018-03-15T15:26:48.145Z,77.70
2018-03-15T15:29:17.072Z,79.20
2018-03-15T15:31:50.385Z,78.80
2018-03-15T15:34:23.652Z,79.70
2018-03-15T15:36:52.411Z,78.80
2018-03-15T15:39:20.830Z,80.60
2018-03-15T15:41:49.299Z,84.70
2018-03-15T15:44:17.732Z,85.30
2018-03-15T15:46:46.194Z,85.30
2018-03-15T15:49:15.422Z,85.70
2018-03-15T15:51:43.856Z,85.70
2018-03-15T15:54:12.501Z,88.10
2018-03-15T15:56:40.948Z,89.20
2018-03-15T15:59:09.671Z,88.80
2018-03-15T16:01:38.195Z,88.80
2018-03-15T16:04:06.893Z,88.10
2018-03-15T16:06:35.610Z,89.50
2018-03-15T16:09:03.473Z,90.40
2018-03-15T16:11:31.970Z,90.10
2018-03-15T16:14:01.696Z,90.00
2018-03-15T16:16:30.394Z,90.00
2018-03-15T16:18:59.331Z,90.60
2018-03-15T16:21:28.524Z,90.20
2018-03-15T16:23:56.982Z,90.20
2018-03-15T16:26:25.692Z,90.50
2018-03-15T16:28:54.892Z,91.00
2018-03-15T16:31:23.645Z,91.00
2018-03-15T16:33:52.360Z,91.20
2018-03-15T16:36:21.291Z,91.30
2018-03-15T16:38:50.064Z,91.30
2018-03-15T16:41:18.783Z,91.50
2018-03-15T16:43:47.490Z,92.10
2018-03-15T16:46:16.429Z,92.30
2018-03-15T16:48:45.135Z,92.70
2018-03-15T16:51:13.848Z,92.40
2018-03-15T16:53:42.701Z,92.40
2018-03-15T16:56:11.363Z,92.90
2018-03-15T16:58:40.085Z,92.70
2018-03-15T17:01:08.836Z,92.90
2018-03-15T17:03:37.564Z,92.80
2018-03-15T17:06:07.036Z,93.40
2018-03-15T17:08:35.752Z,93.40
2018-03-15T17:11:04.348Z,93.20
2018-03-15T17:13:33.299Z,93.30
2018-03-15T17:16:02.022Z,93.60
2018-03-15T17:18:30.708Z,94.00
2018-03-15T17:21:00.786Z,94.80
2018-03-15T17:23:29.462Z,94.70
2018-03-15T17:25:58.162Z,94.60
2018-03-15T17:28:26.873Z,94.60
2018-03-15T17:30:55.562Z,95.00
2018-03-15T17:33:24.311Z,95.00
2018-03-15T17:35:53.250Z,94.80
2018-03-15T17:38:21.965Z,94.90
2018-03-15T17:40:51.390Z,95.30
2018-03-15T17:43:20.109Z,95.30
2018-03-15T17:45:48.796Z,95.00
2018-03-15T17:48:17.480Z,95.30
2018-03-15T17:50:46.167Z,95.00
2018-03-15T17:53:14.857Z,95.00
2018-03-15T17:55:43.543Z,95.30
2018-03-15T17:58:12.202Z,94.90
2018-03-15T18:00:40.888Z,95.50
2018-03-15T18:03:09.617Z,95.50
2018-03-15T18:05:38.309Z,95.20
2018-03-15T18:08:06.982Z,95.50
2018-03-15T18:10:35.699Z,95.40
2018-03-15T18:13:04.374Z,95.70
2018-03-15T18:15:33.045Z,95.70
2018-03-15T18:18:01.762Z,95.70
2018-03-15T18:20:30.468Z,96.20
2018-03-15T18:22:59.220Z,96.10
2018-03-15T18:25:28.229Z,96.10
2018-03-15T18:27:57.187Z,96.20
2018-03-15T18:30:25.973Z,96.40
2018-03-15T18:32:54.936Z,96.30
2018-03-15T18:35:24.943Z,96.20
2018-03-15T18:37:54.657Z,96.70
2018-03-15T18:40:24.399Z,97.00
2018-03-15T18:42:53.624Z,97.00
2018-03-15T18:45:22.569Z,97.20
2018-03-15T18:47:51.357Z,97.30
2018-03-15T18:50:20.155Z,97.60
2018-03-15T18:52:49.114Z,97.70
2018-03-15T18:55:18.820Z,98.00
2018-03-15T18:57:47.628Z,97.90
2018-03-15T19:00:17.410Z,98.00
2018-03-15T19:02:47.177Z,98.00
2018-03-15T19:05:15.934Z,98.00
2018-03-15T19:07:45.484Z,98.20
2018-03-15T19:10:14.610Z,98.10
2018-03-15T19:12:43.572Z,98.20
2018-03-15T19:15:14.502Z,98.60
2018-03-15T19:17:43.531Z,98.70
2018-03-15T19:20:12.507Z,98.80
2018-03-15T19:22:44.508Z,98.60
2018-03-15T19:25:15.466Z,98.90
2018-03-15T19:27:44.186Z,98.80
2018-03-15T19:30:16.839Z,98.80
2018-03-15T19:35:59.569Z,98.60
2018-03-15T19:38:29.309Z,98.60
2018-03-15T19:41:05.767Z,98.60
2018-03-15T19:43:34.674Z,98.90
2018-03-15T19:46:03.817Z,98.90
2018-03-15T19:48:33.475Z,99.10
2018-03-15T19:51:02.475Z,99.00
2018-03-15T19:53:34.149Z,98.80
2018-03-15T19:56:02.873Z,98.80
2018-03-15T19:58:37.556Z,98.70
2018-03-15T20:01:06.471Z,98.90
2018-03-15T20:03:35.194Z,98.50
2018-03-15T20:06:03.927Z,98.60
2018-03-15T20:08:32.657Z,98.50
2018-03-15T20:11:05.380Z,98.20
2018-03-15T20:13:42.650Z,97.10
2018-03-15T20:16:15.071Z,97.10
2018-03-15T20:18:43.932Z,96.90
2018-03-15T20:21:13.450Z,96.80
2018-03-15T20:23:48.771Z,96.70
2018-03-15T20:26:17.841Z,96.60
2018-03-15T20:28:47.909Z,96.50
2018-03-15T20:31:17.064Z,96.50
2018-03-15T20:33:51.596Z,96.50
2018-03-15T20:36:20.603Z,96.70
2018-03-15T20:38:50.142Z,96.60
2018-03-15T20:41:24.295Z,96.60
2018-03-15T20:43:53.235Z,96.40
2018-03-15T20:46:41.278Z,95.60
2018-03-15T20:49:13.045Z,95.60
2018-03-15T20:51:41.820Z,96.30
2018-03-15T20:54:12.167Z,96.60
2018-03-15T20:56:44.251Z,96.50
2018-03-15T20:59:12.991Z,96.40
2018-03-15T21:01:42.551Z,96.60
2018-03-15T21:04:12.945Z,96.40
2018-03-15T21:06:41.712Z,96.30
2018-03-15T21:09:11.246Z,96.30
2018-03-15T21:11:39.988Z,96.30
2018-03-15T21:14:08.994Z,96.50
2018-03-15T21:16:39.022Z,96.40
2018-03-15T21:19:07.748Z,96.80
2018-03-15T21:21:40.169Z,96.70
2018-03-15T21:24:12.549Z,96.60
2018-03-15T21:26:41.499Z,96.60
2018-03-15T21:29:19.261Z,96.70
2018-03-15T21:31:48.273Z,96.50
2018-03-15T21:34:17.204Z,96.70
2018-03-15T21:36:46.322Z,96.70
2018-03-15T21:39:15.327Z,96.80
2018-03-15T21:41:45.888Z,96.70
2018-03-15T21:44:14.903Z,96.70
2018-03-15T21:46:43.712Z,96.70
2018-03-15T21:49:12.668Z,96.40
2018-03-15T21:51:44.089Z,96.50
2018-03-15T21:54:13.205Z,96.60
2018-03-15T21:56:41.957Z,96.50
2018-03-15T21:59:10.759Z,96.60
2018-03-15T22:01:42.240Z,96.40
2018-03-15T22:04:12.044Z,96.40
2018-03-15T22:06:41.909Z,96.30
2018-03-15T22:09:18.420Z,96.10
2018-03-15T22:11:53.901Z,96.10
2018-03-15T22:17:13.524Z,96.00
2018-03-15T22:19:42.378Z,96.00
2018-03-15T22:22:11.425Z,96.10
2018-03-15T22:24:47.491Z,96.00
2018-03-15T22:27:19.825Z,96.30
2018-03-15T22:29:49.437Z,96.00
2018-03-15T22:32:18.430Z,95.90
2018-03-15T22:34:47.607Z,95.90
2018-03-15T22:37:16.668Z,96.10
2018-03-15T22:39:45.729Z,96.50
2018-03-15T22:42:14.501Z,96.40
2018-03-15T22:44:43.431Z,96.20
2018-03-15T22:47:12.257Z,96.30
2018-03-15T22:49:41.763Z,96.40
2018-03-15T22:52:11.271Z,96.30
2018-03-15T22:54:40.946Z,96.30
2018-03-15T22:57:09.696Z,96.30
2018-03-15T22:59:38.458Z,96.20
2018-03-15T23:02:07.167Z,96.20
2018-03-15T23:04:36.122Z,96.20
2018-03-15T23:07:04.733Z,96.30
2018-03-15T23:09:37.245Z,96.40
2018-03-15T23:12:06.018Z,96.40
2018-03-15T23:14:35.502Z,96.20
2018-03-15T23:17:04.316Z,96.20
2018-03-15T23:19:33.260Z,96.20
2018-03-15T23:22:02.320Z,96.20
2018-03-15T23:24:31.278Z,96.10
2018-03-15T23:27:00.799Z,96.30
2018-03-15T23:29:29.479Z,96.30
2018-03-15T23:31:58.177Z,96.40
2018-03-15T23:34:27.125Z,96.20
2018-03-15T23:36:56.280Z,96.30
2018-03-15T23:39:25.032Z,96.20
2018-03-15T23:41:54.748Z,96.40
2018-03-15T23:44:24.259Z,96.20
2018-03-15T23:46:53.489Z,96.20
2018-03-15T23:49:22.429Z,96.20
2018-03-15T23:51:54.513Z,96.40
2018-03-15T23:54:24.024Z,96.00
2018-03-15T23:56:53.321Z,95.80
2018-03-15T23:59:23.084Z,95.80
